sensor_id;sensor_type;location;lat;lon;timestamp;P1;durP1;ratioP1;P2;durP2;ratioP2
17235;SDS011;8734;59.272;17.780;2023-11-21T00:01:28;12.47;;;5.50;;
17235;SDS011;8734;59.272;17.780;2023-11-21T00:03:58;12.23;;;5.63;;
17235;SDS011;8734;59.272;17.780;2023-11-21T00:06:28;13.10;;;5.13;;
17235;SDS011;8734;59.272;17.780;2023-11-21T00:08:57;12.73;;;5.60;;
17235;SDS011;8734;59.272;17.780;2023-11-21T00:11:25;15.50;;;5.63;;
17235;SDS011;8734;59.272;17.780;2023-11-21T00:13:53;12.10;;;5.00;;
17235;SDS011;8734;59.272;17.780;2023-11-21T00:16:22;16.33;;;5.93;;
17235;SDS011;8734;59.272;17.780;2023-11-21T00:18:52;12.63;;;4.80;;
17235;SDS011;8734;59.272;17.780;2023-11-21T00:21:22;11.47;;;5.13;;
17235;SDS011;8734;59.272;17.780;2023-11-21T00:23:50;12.07;;;5.23;;
17235;SDS011;8734;59.272;17.780;2023-11-21T00:26:22;13.20;;;5.30;;
17235;SDS011;8734;59.272;17.780;2023-11-21T00:28:51;17.03;;;6.67;;
17235;SDS011;8734;59.272;17.780;2023-11-21T00:31:20;12.10;;;5.50;;
17235;SDS011;8734;59.272;17.780;2023-11-21T00:33:48;13.43;;;6.03;;
17235;SDS011;8734;59.272;17.780;2023-11-21T00:36:16;16.63;;;6.03;;
17235;SDS011;8734;59.272;17.780;2023-11-21T00:38:47;18.57;;;7.17;;
17235;SDS011;8734;59.272;17.780;2023-11-21T00:41:14;19.53;;;7.70;;
17235;SDS011;8734;59.272;17.780;2023-11-21T00:43:43;18.33;;;6.90;;
17235;SDS011;8734;59.272;17.780;2023-11-21T00:46:11;20.70;;;7.17;;
17235;SDS011;8734;59.272;17.780;2023-11-21T00:48:40;21.83;;;8.23;;
17235;SDS011;8734;59.272;17.780;2023-11-21T00:51:08;22.00;;;7.90;;
17235;SDS011;8734;59.272;17.780;2023-11-21T00:53:36;25.63;;;8.40;;
17235;SDS011;8734;59.272;17.780;2023-11-21T00:56:07;24.50;;;8.70;;
17235;SDS011;8734;59.272;17.780;2023-11-21T00:58:35;28.10;;;8.63;;
17235;SDS011;8734;59.272;17.780;2023-11-21T01:01:04;23.87;;;7.90;;
17235;SDS011;8734;59.272;17.780;2023-11-21T01:03:32;27.30;;;8.60;;
17235;SDS011;8734;59.272;17.780;2023-11-21T01:06:01;26.00;;;8.97;;
17235;SDS011;8734;59.272;17.780;2023-11-21T01:08:29;27.80;;;8.73;;
17235;SDS011;8734;59.272;17.780;2023-11-21T01:10:57;29.03;;;9.23;;
17235;SDS011;8734;59.272;17.780;2023-11-21T01:13:27;32.93;;;10.77;;
17235;SDS011;8734;59.272;17.780;2023-11-21T01:15:56;30.40;;;10.30;;
17235;SDS011;8734;59.272;17.780;2023-11-21T01:18:24;32.63;;;10.17;;
17235;SDS011;8734;59.272;17.780;2023-11-21T01:20:52;27.37;;;8.53;;
17235;SDS011;8734;59.272;17.780;2023-11-21T01:23:21;35.63;;;9.00;;
17235;SDS011;8734;59.272;17.780;2023-11-21T01:25:49;36.63;;;9.97;;
17235;SDS011;8734;59.272;17.780;2023-11-21T01:28:18;31.73;;;9.50;;
17235;SDS011;8734;59.272;17.780;2023-11-21T01:30:48;36.00;;;9.67;;
17235;SDS011;8734;59.272;17.780;2023-11-21T01:33:17;32.33;;;8.57;;
17235;SDS011;8734;59.272;17.780;2023-11-21T01:35:45;27.97;;;9.27;;
17235;SDS011;8734;59.272;17.780;2023-11-21T01:38:14;28.90;;;9.20;;
17235;SDS011;8734;59.272;17.780;2023-11-21T01:40:43;35.57;;;9.03;;
17235;SDS011;8734;59.272;17.780;2023-11-21T01:43:12;29.23;;;9.93;;
17235;SDS011;8734;59.272;17.780;2023-11-21T01:45:40;29.53;;;9.73;;
17235;SDS011;8734;59.272;17.780;2023-11-21T01:48:10;32.10;;;9.50;;
17235;SDS011;8734;59.272;17.780;2023-11-21T01:50:39;25.30;;;9.03;;
17235;SDS011;8734;59.272;17.780;2023-11-21T01:53:07;30.37;;;10.07;;
17235;SDS011;8734;59.272;17.780;2023-11-21T01:55:36;26.03;;;9.10;;
17235;SDS011;8734;59.272;17.780;2023-11-21T01:58:05;30.10;;;10.27;;
17235;SDS011;8734;59.272;17.780;2023-11-21T02:00:34;31.30;;;8.77;;
17235;SDS011;8734;59.272;17.780;2023-11-21T02:03:04;27.47;;;8.70;;
17235;SDS011;8734;59.272;17.780;2023-11-21T02:05:35;25.63;;;9.10;;
17235;SDS011;8734;59.272;17.780;2023-11-21T02:08:04;26.00;;;8.97;;
17235;SDS011;8734;59.272;17.780;2023-11-21T02:10:32;20.43;;;7.57;;
17235;SDS011;8734;59.272;17.780;2023-11-21T02:13:03;23.57;;;8.43;;
17235;SDS011;8734;59.272;17.780;2023-11-21T02:15:32;25.10;;;8.77;;
17235;SDS011;8734;59.272;17.780;2023-11-21T02:18:00;24.23;;;7.97;;
17235;SDS011;8734;59.272;17.780;2023-11-21T02:20:29;21.63;;;7.60;;
17235;SDS011;8734;59.272;17.780;2023-11-21T02:22:59;20.93;;;7.93;;
17235;SDS011;8734;59.272;17.780;2023-11-21T02:25:28;20.93;;;7.20;;
17235;SDS011;8734;59.272;17.780;2023-11-21T02:27:59;19.40;;;7.73;;
17235;SDS011;8734;59.272;17.780;2023-11-21T02:30:28;18.23;;;6.73;;
17235;SDS011;8734;59.272;17.780;2023-11-21T02:32:58;18.90;;;7.80;;
17235;SDS011;8734;59.272;17.780;2023-11-21T02:35:27;15.73;;;6.53;;
17235;SDS011;8734;59.272;17.780;2023-11-21T02:37:59;17.27;;;7.50;;
17235;SDS011;8734;59.272;17.780;2023-11-21T02:40:28;15.97;;;7.03;;
17235;SDS011;8734;59.272;17.780;2023-11-21T02:42:57;16.77;;;6.63;;
17235;SDS011;8734;59.272;17.780;2023-11-21T02:45:26;20.27;;;8.00;;
17235;SDS011;8734;59.272;17.780;2023-11-21T02:47:54;18.13;;;6.73;;
17235;SDS011;8734;59.272;17.780;2023-11-21T02:50:25;17.07;;;6.70;;
17235;SDS011;8734;59.272;17.780;2023-11-21T02:52:53;16.10;;;6.60;;
17235;SDS011;8734;59.272;17.780;2023-11-21T02:55:26;16.67;;;7.30;;
17235;SDS011;8734;59.272;17.780;2023-11-21T02:57:54;20.50;;;6.77;;
17235;SDS011;8734;59.272;17.780;2023-11-21T03:00:24;18.37;;;7.43;;
17235;SDS011;8734;59.272;17.780;2023-11-21T03:02:54;17.37;;;6.63;;
17235;SDS011;8734;59.272;17.780;2023-11-21T03:05:24;15.37;;;6.33;;
17235;SDS011;8734;59.272;17.780;2023-11-21T03:07:53;16.50;;;6.87;;
17235;SDS011;8734;59.272;17.780;2023-11-21T03:10:21;20.47;;;6.63;;
17235;SDS011;8734;59.272;17.780;2023-11-21T03:12:51;15.00;;;6.43;;
17235;SDS011;8734;59.272;17.780;2023-11-21T03:15:20;13.67;;;6.07;;
17235;SDS011;8734;59.272;17.780;2023-11-21T03:17:48;14.10;;;5.93;;
17235;SDS011;8734;59.272;17.780;2023-11-21T03:20:17;12.27;;;6.03;;
17235;SDS011;8734;59.272;17.780;2023-11-21T03:22:45;14.83;;;6.00;;
17235;SDS011;8734;59.272;17.780;2023-11-21T03:25:14;15.97;;;5.80;;
17235;SDS011;8734;59.272;17.780;2023-11-21T03:27:43;12.03;;;6.00;;
17235;SDS011;8734;59.272;17.780;2023-11-21T03:30:13;14.33;;;5.83;;
17235;SDS011;8734;59.272;17.780;2023-11-21T03:32:43;16.43;;;6.10;;
17235;SDS011;8734;59.272;17.780;2023-11-21T03:35:11;13.53;;;5.77;;
17235;SDS011;8734;59.272;17.780;2023-11-21T03:37:40;10.00;;;5.07;;
17235;SDS011;8734;59.272;17.780;2023-11-21T03:40:09;10.30;;;5.27;;
17235;SDS011;8734;59.272;17.780;2023-11-21T03:42:39;18.07;;;6.93;;
17235;SDS011;8734;59.272;17.780;2023-11-21T03:45:08;12.30;;;5.10;;
17235;SDS011;8734;59.272;17.780;2023-11-21T03:47:40;11.90;;;5.00;;
17235;SDS011;8734;59.272;17.780;2023-11-21T03:50:09;12.77;;;5.97;;
17235;SDS011;8734;59.272;17.780;2023-11-21T03:52:38;13.07;;;5.90;;
17235;SDS011;8734;59.272;17.780;2023-11-21T03:55:06;11.93;;;5.90;;
17235;SDS011;8734;59.272;17.780;2023-11-21T03:57:37;14.10;;;5.87;;
17235;SDS011;8734;59.272;17.780;2023-11-21T04:00:05;13.00;;;5.87;;
17235;SDS011;8734;59.272;17.780;2023-11-21T04:02:36;12.47;;;6.07;;
17235;SDS011;8734;59.272;17.780;2023-11-21T04:05:07;11.77;;;4.87;;
17235;SDS011;8734;59.272;17.780;2023-11-21T04:07:36;13.50;;;5.87;;
17235;SDS011;8734;59.272;17.780;2023-11-21T04:10:05;15.70;;;5.57;;
17235;SDS011;8734;59.272;17.780;2023-11-21T04:12:35;14.60;;;5.57;;
17235;SDS011;8734;59.272;17.780;2023-11-21T04:15:04;12.13;;;5.07;;
17235;SDS011;8734;59.272;17.780;2023-11-21T04:17:35;14.07;;;5.57;;
17235;SDS011;8734;59.272;17.780;2023-11-21T04:20:03;14.60;;;5.60;;
17235;SDS011;8734;59.272;17.780;2023-11-21T04:22:40;12.80;;;5.77;;
17235;SDS011;8734;59.272;17.780;2023-11-21T04:25:11;12.97;;;5.50;;
17235;SDS011;8734;59.272;17.780;2023-11-21T04:27:42;13.47;;;5.20;;
17235;SDS011;8734;59.272;17.780;2023-11-21T04:30:11;12.10;;;5.50;;
17235;SDS011;8734;59.272;17.780;2023-11-21T04:32:41;10.90;;;4.73;;
17235;SDS011;8734;59.272;17.780;2023-11-21T04:35:10;13.07;;;5.40;;
17235;SDS011;8734;59.272;17.780;2023-11-21T04:37:39;10.70;;;5.23;;
17235;SDS011;8734;59.272;17.780;2023-11-21T04:40:08;9.00;;;4.83;;
17235;SDS011;8734;59.272;17.780;2023-11-21T04:42:37;10.50;;;5.23;;
17235;SDS011;8734;59.272;17.780;2023-11-21T04:45:05;14.83;;;5.90;;
17235;SDS011;8734;59.272;17.780;2023-11-21T04:47:38;8.63;;;4.80;;
17235;SDS011;8734;59.272;17.780;2023-11-21T04:50:06;10.77;;;6.07;;
17235;SDS011;8734;59.272;17.780;2023-11-21T04:52:35;10.43;;;5.43;;
17235;SDS011;8734;59.272;17.780;2023-11-21T04:55:05;12.37;;;6.10;;
17235;SDS011;8734;59.272;17.780;2023-11-21T04:57:37;9.67;;;5.10;;
17235;SDS011;8734;59.272;17.780;2023-11-21T05:00:06;12.07;;;7.00;;
17235;SDS011;8734;59.272;17.780;2023-11-21T05:02:36;9.80;;;5.40;;
17235;SDS011;8734;59.272;17.780;2023-11-21T05:05:05;12.53;;;5.60;;
17235;SDS011;8734;59.272;17.780;2023-11-21T05:07:37;8.90;;;5.30;;
17235;SDS011;8734;59.272;17.780;2023-11-21T05:10:07;11.00;;;5.97;;
17235;SDS011;8734;59.272;17.780;2023-11-21T05:12:39;9.00;;;5.33;;
17235;SDS011;8734;59.272;17.780;2023-11-21T05:15:13;9.57;;;6.17;;
17235;SDS011;8734;59.272;17.780;2023-11-21T05:17:42;10.80;;;5.17;;
17235;SDS011;8734;59.272;17.780;2023-11-21T05:20:13;9.13;;;5.30;;
17235;SDS011;8734;59.272;17.780;2023-11-21T05:22:44;13.47;;;5.27;;
17235;SDS011;8734;59.272;17.780;2023-11-21T05:25:14;7.97;;;4.80;;
17235;SDS011;8734;59.272;17.780;2023-11-21T05:27:45;8.33;;;4.63;;
17235;SDS011;8734;59.272;17.780;2023-11-21T05:30:13;8.00;;;4.73;;
17235;SDS011;8734;59.272;17.780;2023-11-21T05:32:42;7.47;;;4.20;;
17235;SDS011;8734;59.272;17.780;2023-11-21T05:35:10;7.90;;;4.83;;
17235;SDS011;8734;59.272;17.780;2023-11-21T05:37:43;5.43;;;4.30;;
17235;SDS011;8734;59.272;17.780;2023-11-21T05:40:14;5.73;;;3.83;;
17235;SDS011;8734;59.272;17.780;2023-11-21T05:42:43;8.13;;;4.23;;
17235;SDS011;8734;59.272;17.780;2023-11-21T05:45:12;7.50;;;5.13;;
17235;SDS011;8734;59.272;17.780;2023-11-21T05:47:41;9.10;;;4.40;;
17235;SDS011;8734;59.272;17.780;2023-11-21T05:50:10;7.67;;;4.43;;
17235;SDS011;8734;59.272;17.780;2023-11-21T05:52:41;5.30;;;3.87;;
17235;SDS011;8734;59.272;17.780;2023-11-21T05:55:10;9.27;;;4.03;;
17235;SDS011;8734;59.272;17.780;2023-11-21T05:57:41;7.10;;;4.30;;
17235;SDS011;8734;59.272;17.780;2023-11-21T06:00:11;5.87;;;3.83;;
17235;SDS011;8734;59.272;17.780;2023-11-21T06:02:47;6.73;;;3.90;;
17235;SDS011;8734;59.272;17.780;2023-11-21T06:05:21;7.07;;;4.33;;
17235;SDS011;8734;59.272;17.780;2023-11-21T06:07:51;7.67;;;4.27;;
17235;SDS011;8734;59.272;17.780;2023-11-21T06:10:20;7.13;;;3.70;;
17235;SDS011;8734;59.272;17.780;2023-11-21T06:12:52;7.30;;;4.13;;
17235;SDS011;8734;59.272;17.780;2023-11-21T06:15:21;6.43;;;3.93;;
17235;SDS011;8734;59.272;17.780;2023-11-21T06:17:50;6.40;;;3.93;;
17235;SDS011;8734;59.272;17.780;2023-11-21T06:20:20;7.30;;;4.03;;
17235;SDS011;8734;59.272;17.780;2023-11-21T06:22:50;7.40;;;3.97;;
17235;SDS011;8734;59.272;17.780;2023-11-21T06:25:19;6.27;;;3.93;;
17235;SDS011;8734;59.272;17.780;2023-11-21T06:27:48;6.67;;;4.07;;
17235;SDS011;8734;59.272;17.780;2023-11-21T06:30:19;5.30;;;3.83;;
17235;SDS011;8734;59.272;17.780;2023-11-21T06:32:48;7.17;;;3.90;;
17235;SDS011;8734;59.272;17.780;2023-11-21T06:35:17;9.57;;;4.27;;
17235;SDS011;8734;59.272;17.780;2023-11-21T06:37:46;6.83;;;3.63;;
17235;SDS011;8734;59.272;17.780;2023-11-21T06:40:16;6.63;;;3.63;;
17235;SDS011;8734;59.272;17.780;2023-11-21T06:42:47;8.43;;;4.13;;
17235;SDS011;8734;59.272;17.780;2023-11-21T06:45:16;7.17;;;4.10;;
17235;SDS011;8734;59.272;17.780;2023-11-21T06:47:46;9.43;;;4.80;;
17235;SDS011;8734;59.272;17.780;2023-11-21T06:50:15;6.97;;;4.30;;
17235;SDS011;8734;59.272;17.780;2023-11-21T06:52:43;8.47;;;4.37;;
17235;SDS011;8734;59.272;17.780;2023-11-21T06:55:12;8.23;;;4.57;;
17235;SDS011;8734;59.272;17.780;2023-11-21T06:57:40;11.37;;;4.97;;
17235;SDS011;8734;59.272;17.780;2023-11-21T07:00:09;8.80;;;5.30;;
17235;SDS011;8734;59.272;17.780;2023-11-21T07:02:38;9.83;;;5.70;;
17235;SDS011;8734;59.272;17.780;2023-11-21T07:05:09;8.37;;;4.80;;
17235;SDS011;8734;59.272;17.780;2023-11-21T07:07:37;10.20;;;4.63;;
17235;SDS011;8734;59.272;17.780;2023-11-21T07:10:06;9.70;;;5.80;;
17235;SDS011;8734;59.272;17.780;2023-11-21T07:12:36;10.80;;;5.07;;
17235;SDS011;8734;59.272;17.780;2023-11-21T07:15:05;7.83;;;5.30;;
17235;SDS011;8734;59.272;17.780;2023-11-21T07:17:36;7.80;;;4.83;;
17235;SDS011;8734;59.272;17.780;2023-11-21T07:20:09;11.10;;;5.43;;
17235;SDS011;8734;59.272;17.780;2023-11-21T07:22:38;9.40;;;5.10;;
17235;SDS011;8734;59.272;17.780;2023-11-21T07:25:07;9.43;;;5.17;;
17235;SDS011;8734;59.272;17.780;2023-11-21T07:27:37;10.53;;;5.63;;
17235;SDS011;8734;59.272;17.780;2023-11-21T07:30:05;9.53;;;5.67;;
17235;SDS011;8734;59.272;17.780;2023-11-21T07:32:36;13.57;;;5.53;;
17235;SDS011;8734;59.272;17.780;2023-11-21T07:35:09;8.90;;;5.37;;
17235;SDS011;8734;59.272;17.780;2023-11-21T07:37:38;9.77;;;4.93;;
17235;SDS011;8734;59.272;17.780;2023-11-21T07:40:06;9.27;;;5.13;;
17235;SDS011;8734;59.272;17.780;2023-11-21T07:42:38;10.23;;;5.00;;
17235;SDS011;8734;59.272;17.780;2023-11-21T07:45:06;8.00;;;4.60;;
17235;SDS011;8734;59.272;17.780;2023-11-21T07:47:35;10.73;;;4.83;;
17235;SDS011;8734;59.272;17.780;2023-11-21T07:50:06;9.20;;;4.97;;
17235;SDS011;8734;59.272;17.780;2023-11-21T07:52:36;7.60;;;4.50;;
17235;SDS011;8734;59.272;17.780;2023-11-21T07:55:06;10.00;;;5.00;;
17235;SDS011;8734;59.272;17.780;2023-11-21T07:57:35;6.17;;;3.90;;
17235;SDS011;8734;59.272;17.780;2023-11-21T08:00:03;8.07;;;4.70;;
17235;SDS011;8734;59.272;17.780;2023-11-21T08:02:35;8.63;;;4.10;;
17235;SDS011;8734;59.272;17.780;2023-11-21T08:05:04;9.30;;;4.43;;
17235;SDS011;8734;59.272;17.780;2023-11-21T08:07:38;9.47;;;4.57;;
17235;SDS011;8734;59.272;17.780;2023-11-21T08:10:07;8.47;;;4.53;;
17235;SDS011;8734;59.272;17.780;2023-11-21T08:12:37;11.23;;;5.03;;
17235;SDS011;8734;59.272;17.780;2023-11-21T08:15:06;9.70;;;5.03;;
17235;SDS011;8734;59.272;17.780;2023-11-21T08:17:35;8.00;;;4.83;;
17235;SDS011;8734;59.272;17.780;2023-11-21T08:20:04;7.63;;;4.47;;
17235;SDS011;8734;59.272;17.780;2023-11-21T08:22:35;7.67;;;4.13;;
17235;SDS011;8734;59.272;17.780;2023-11-21T08:25:05;7.53;;;4.40;;
17235;SDS011;8734;59.272;17.780;2023-11-21T08:27:34;10.07;;;3.60;;
17235;SDS011;8734;59.272;17.780;2023-11-21T08:30:02;8.70;;;4.27;;
17235;SDS011;8734;59.272;17.780;2023-11-21T08:32:31;8.97;;;3.73;;
17235;SDS011;8734;59.272;17.780;2023-11-21T08:34:59;6.43;;;3.70;;
17235;SDS011;8734;59.272;17.780;2023-11-21T08:37:28;12.40;;;4.50;;
17235;SDS011;8734;59.272;17.780;2023-11-21T08:39:57;7.70;;;3.63;;
17235;SDS011;8734;59.272;17.780;2023-11-21T08:42:28;9.37;;;4.37;;
17235;SDS011;8734;59.272;17.780;2023-11-21T08:44:57;7.37;;;3.73;;
17235;SDS011;8734;59.272;17.780;2023-11-21T08:47:25;6.63;;;4.50;;
17235;SDS011;8734;59.272;17.780;2023-11-21T08:49:53;6.37;;;4.00;;
17235;SDS011;8734;59.272;17.780;2023-11-21T08:52:22;7.60;;;3.90;;
17235;SDS011;8734;59.272;17.780;2023-11-21T08:54:50;5.73;;;3.57;;
17235;SDS011;8734;59.272;17.780;2023-11-21T08:57:22;9.37;;;3.90;;
17235;SDS011;8734;59.272;17.780;2023-11-21T08:59:52;7.40;;;3.90;;
17235;SDS011;8734;59.272;17.780;2023-11-21T09:02:22;8.70;;;4.17;;
17235;SDS011;8734;59.272;17.780;2023-11-21T09:04:50;6.60;;;4.13;;
17235;SDS011;8734;59.272;17.780;2023-11-21T09:07:19;5.67;;;3.73;;
17235;SDS011;8734;59.272;17.780;2023-11-21T09:09:47;7.57;;;4.03;;
17235;SDS011;8734;59.272;17.780;2023-11-21T09:12:15;10.83;;;4.77;;
17235;SDS011;8734;59.272;17.780;2023-11-21T09:14:45;10.47;;;4.70;;
17235;SDS011;8734;59.272;17.780;2023-11-21T09:17:15;8.47;;;4.77;;
17235;SDS011;8734;59.272;17.780;2023-11-21T09:19:43;6.60;;;3.90;;
17235;SDS011;8734;59.272;17.780;2023-11-21T09:22:16;10.17;;;4.80;;
17235;SDS011;8734;59.272;17.780;2023-11-21T09:24:45;18.50;;;4.83;;
17235;SDS011;8734;59.272;17.780;2023-11-21T09:27:14;8.57;;;5.13;;
17235;SDS011;8734;59.272;17.780;2023-11-21T09:29:43;10.40;;;4.73;;
17235;SDS011;8734;59.272;17.780;2023-11-21T09:32:12;11.47;;;5.50;;
17235;SDS011;8734;59.272;17.780;2023-11-21T09:34:46;14.83;;;5.60;;
17235;SDS011;8734;59.272;17.780;2023-11-21T09:37:15;7.90;;;4.00;;
17235;SDS011;8734;59.272;17.780;2023-11-21T09:39:44;8.73;;;4.57;;
17235;SDS011;8734;59.272;17.780;2023-11-21T09:42:17;7.70;;;4.23;;
17235;SDS011;8734;59.272;17.780;2023-11-21T09:44:54;8.03;;;4.00;;
17235;SDS011;8734;59.272;17.780;2023-11-21T09:47:27;10.37;;;3.93;;
17235;SDS011;8734;59.272;17.780;2023-11-21T09:49:57;8.53;;;3.43;;
17235;SDS011;8734;59.272;17.780;2023-11-21T09:52:30;5.67;;;3.73;;
17235;SDS011;8734;59.272;17.780;2023-11-21T09:55:00;4.83;;;3.20;;
17235;SDS011;8734;59.272;17.780;2023-11-21T09:57:32;4.40;;;2.60;;
17235;SDS011;8734;59.272;17.780;2023-11-21T10:00:00;5.30;;;2.93;;
17235;SDS011;8734;59.272;17.780;2023-11-21T10:02:32;3.23;;;2.23;;
17235;SDS011;8734;59.272;17.780;2023-11-21T10:05:06;4.60;;;2.70;;
17235;SDS011;8734;59.272;17.780;2023-11-21T10:07:36;4.23;;;2.50;;
17235;SDS011;8734;59.272;17.780;2023-11-21T10:10:06;6.77;;;3.57;;
17235;SDS011;8734;59.272;17.780;2023-11-21T10:12:36;5.77;;;3.50;;
17235;SDS011;8734;59.272;17.780;2023-11-21T10:15:07;5.73;;;2.60;;
17235;SDS011;8734;59.272;17.780;2023-11-21T10:17:38;6.50;;;3.10;;
17235;SDS011;8734;59.272;17.780;2023-11-21T10:20:13;5.50;;;3.00;;
17235;SDS011;8734;59.272;17.780;2023-11-21T10:22:42;4.17;;;2.63;;
17235;SDS011;8734;59.272;17.780;2023-11-21T10:25:11;4.17;;;2.43;;
17235;SDS011;8734;59.272;17.780;2023-11-21T10:27:41;6.20;;;3.07;;
17235;SDS011;8734;59.272;17.780;2023-11-21T10:30:10;5.80;;;3.10;;
17235;SDS011;8734;59.272;17.780;2023-11-21T10:32:38;4.40;;;2.63;;
17235;SDS011;8734;59.272;17.780;2023-11-21T10:35:07;3.80;;;2.60;;
17235;SDS011;8734;59.272;17.780;2023-11-21T10:37:39;5.43;;;2.80;;
17235;SDS011;8734;59.272;17.780;2023-11-21T10:40:08;5.43;;;2.50;;
17235;SDS011;8734;59.272;17.780;2023-11-21T10:42:39;3.53;;;2.70;;
17235;SDS011;8734;59.272;17.780;2023-11-21T10:45:08;5.30;;;2.70;;
17235;SDS011;8734;59.272;17.780;2023-11-21T10:47:40;5.20;;;2.50;;
17235;SDS011;8734;59.272;17.780;2023-11-21T10:50:09;8.43;;;2.87;;
17235;SDS011;8734;59.272;17.780;2023-11-21T10:52:40;4.40;;;2.30;;
17235;SDS011;8734;59.272;17.780;2023-11-21T10:55:16;4.57;;;2.50;;
17235;SDS011;8734;59.272;17.780;2023-11-21T10:57:48;5.50;;;3.30;;
17235;SDS011;8734;59.272;17.780;2023-11-21T11:00:19;8.43;;;2.80;;
17235;SDS011;8734;59.272;17.780;2023-11-21T11:02:49;5.87;;;3.37;;
17235;SDS011;8734;59.272;17.780;2023-11-21T11:05:20;6.53;;;2.50;;
17235;SDS011;8734;59.272;17.780;2023-11-21T11:07:52;5.03;;;2.80;;
17235;SDS011;8734;59.272;17.780;2023-11-21T11:10:26;6.37;;;3.13;;
17235;SDS011;8734;59.272;17.780;2023-11-21T11:12:56;4.13;;;2.73;;
17235;SDS011;8734;59.272;17.780;2023-11-21T11:15:25;4.77;;;2.77;;
17235;SDS011;8734;59.272;17.780;2023-11-21T11:17:55;5.30;;;3.07;;
17235;SDS011;8734;59.272;17.780;2023-11-21T11:20:25;5.13;;;2.90;;
17235;SDS011;8734;59.272;17.780;2023-11-21T11:23:08;5.47;;;3.40;;
17235;SDS011;8734;59.272;17.780;2023-11-21T11:25:50;6.20;;;3.27;;
17235;SDS011;8734;59.272;17.780;2023-11-21T11:28:29;11.23;;;3.30;;
17235;SDS011;8734;59.272;17.780;2023-11-21T11:31:12;6.47;;;4.30;;
17235;SDS011;8734;59.272;17.780;2023-11-21T11:33:48;4.70;;;3.17;;
17235;SDS011;8734;59.272;17.780;2023-11-21T11:36:22;6.77;;;3.30;;
17235;SDS011;8734;59.272;17.780;2023-11-21T11:38:56;4.90;;;3.37;;
17235;SDS011;8734;59.272;17.780;2023-11-21T11:41:25;5.40;;;3.30;;
17235;SDS011;8734;59.272;17.780;2023-11-21T11:43:56;5.23;;;3.43;;
17235;SDS011;8734;59.272;17.780;2023-11-21T11:46:39;6.13;;;3.50;;
17235;SDS011;8734;59.272;17.780;2023-11-21T11:49:09;8.20;;;4.27;;
17235;SDS011;8734;59.272;17.780;2023-11-21T11:51:37;8.00;;;3.43;;
17235;SDS011;8734;59.272;17.780;2023-11-21T11:54:07;5.57;;;3.30;;
17235;SDS011;8734;59.272;17.780;2023-11-21T11:56:35;6.13;;;3.53;;
17235;SDS011;8734;59.272;17.780;2023-11-21T11:59:06;5.57;;;3.57;;
17235;SDS011;8734;59.272;17.780;2023-11-21T12:01:36;5.00;;;3.00;;
17235;SDS011;8734;59.272;17.780;2023-11-21T12:04:23;4.97;;;3.00;;
17235;SDS011;8734;59.272;17.780;2023-11-21T12:06:59;4.33;;;2.90;;
17235;SDS011;8734;59.272;17.780;2023-11-21T12:09:30;11.73;;;3.33;;
17235;SDS011;8734;59.272;17.780;2023-11-21T12:12:00;4.83;;;3.10;;
17235;SDS011;8734;59.272;17.780;2023-11-21T12:14:30;4.93;;;3.33;;
17235;SDS011;8734;59.272;17.780;2023-11-21T12:16:58;3.73;;;2.73;;
17235;SDS011;8734;59.272;17.780;2023-11-21T12:19:28;6.73;;;3.23;;
17235;SDS011;8734;59.272;17.780;2023-11-21T12:21:57;11.90;;;3.53;;
17235;SDS011;8734;59.272;17.780;2023-11-21T12:24:26;7.90;;;3.50;;
17235;SDS011;8734;59.272;17.780;2023-11-21T12:26:57;6.57;;;3.83;;
17235;SDS011;8734;59.272;17.780;2023-11-21T12:29:25;6.33;;;3.83;;
17235;SDS011;8734;59.272;17.780;2023-11-21T12:31:56;7.07;;;3.60;;
17235;SDS011;8734;59.272;17.780;2023-11-21T12:34:24;5.77;;;3.70;;
17235;SDS011;8734;59.272;17.780;2023-11-21T12:36:53;6.77;;;4.03;;
17235;SDS011;8734;59.272;17.780;2023-11-21T12:39:22;5.70;;;3.70;;
17235;SDS011;8734;59.272;17.780;2023-11-21T12:41:50;7.10;;;3.73;;
17235;SDS011;8734;59.272;17.780;2023-11-21T12:44:20;6.50;;;3.90;;
17235;SDS011;8734;59.272;17.780;2023-11-21T12:46:50;8.80;;;3.90;;
17235;SDS011;8734;59.272;17.780;2023-11-21T12:49:19;11.07;;;3.87;;
17235;SDS011;8734;59.272;17.780;2023-11-21T12:51:48;8.40;;;3.97;;
17235;SDS011;8734;59.272;17.780;2023-11-21T12:54:17;10.17;;;4.00;;
17235;SDS011;8734;59.272;17.780;2023-11-21T12:56:46;5.07;;;3.10;;
17235;SDS011;8734;59.272;17.780;2023-11-21T12:59:15;7.93;;;4.10;;
17235;SDS011;8734;59.272;17.780;2023-11-21T13:01:46;9.07;;;4.40;;
17235;SDS011;8734;59.272;17.780;2023-11-21T13:04:17;10.90;;;5.10;;
17235;SDS011;8734;59.272;17.780;2023-11-21T13:06:46;10.73;;;4.90;;
17235;SDS011;8734;59.272;17.780;2023-11-21T13:09:14;8.60;;;4.60;;
17235;SDS011;8734;59.272;17.780;2023-11-21T13:11:48;13.90;;;4.73;;
17235;SDS011;8734;59.272;17.780;2023-11-21T13:14:16;11.63;;;5.23;;
17235;SDS011;8734;59.272;17.780;2023-11-21T13:16:46;10.60;;;5.50;;
17235;SDS011;8734;59.272;17.780;2023-11-21T13:19:14;9.77;;;5.00;;
17235;SDS011;8734;59.272;17.780;2023-11-21T13:21:42;10.90;;;4.50;;
17235;SDS011;8734;59.272;17.780;2023-11-21T13:24:11;10.53;;;4.93;;
17235;SDS011;8734;59.272;17.780;2023-11-21T13:26:39;6.90;;;3.77;;
17235;SDS011;8734;59.272;17.780;2023-11-21T13:29:07;7.47;;;3.90;;
17235;SDS011;8734;59.272;17.780;2023-11-21T13:31:35;7.17;;;3.40;;
17235;SDS011;8734;59.272;17.780;2023-11-21T13:34:06;5.73;;;2.90;;
17235;SDS011;8734;59.272;17.780;2023-11-21T13:36:35;4.37;;;2.60;;
17235;SDS011;8734;59.272;17.780;2023-11-21T13:39:03;5.03;;;2.60;;
17235;SDS011;8734;59.272;17.780;2023-11-21T13:41:35;4.43;;;2.27;;
17235;SDS011;8734;59.272;17.780;2023-11-21T13:44:05;3.50;;;2.27;;
17235;SDS011;8734;59.272;17.780;2023-11-21T13:46:43;3.90;;;2.47;;
17235;SDS011;8734;59.272;17.780;2023-11-21T13:49:14;3.33;;;2.30;;
17235;SDS011;8734;59.272;17.780;2023-11-21T13:51:43;2.80;;;2.10;;
17235;SDS011;8734;59.272;17.780;2023-11-21T13:54:14;2.93;;;1.70;;
17235;SDS011;8734;59.272;17.780;2023-11-21T13:56:42;4.33;;;2.07;;
17235;SDS011;8734;59.272;17.780;2023-11-21T13:59:13;5.13;;;1.63;;
17235;SDS011;8734;59.272;17.780;2023-11-21T14:01:48;3.83;;;1.90;;
17235;SDS011;8734;59.272;17.780;2023-11-21T14:04:26;3.33;;;1.93;;
17235;SDS011;8734;59.272;17.780;2023-11-21T14:07:16;2.77;;;1.60;;
17235;SDS011;8734;59.272;17.780;2023-11-21T14:09:59;4.53;;;1.87;;
17235;SDS011;8734;59.272;17.780;2023-11-21T14:12:27;4.00;;;1.70;;
17235;SDS011;8734;59.272;17.780;2023-11-21T14:15:04;4.07;;;1.90;;
17235;SDS011;8734;59.272;17.780;2023-11-21T14:17:36;4.23;;;2.00;;
17235;SDS011;8734;59.272;17.780;2023-11-21T14:20:08;3.27;;;1.80;;
17235;SDS011;8734;59.272;17.780;2023-11-21T14:22:43;3.90;;;1.80;;
17235;SDS011;8734;59.272;17.780;2023-11-21T14:25:12;6.37;;;2.07;;
17235;SDS011;8734;59.272;17.780;2023-11-21T14:27:40;4.63;;;2.20;;
17235;SDS011;8734;59.272;17.780;2023-11-21T14:30:09;3.63;;;1.87;;
17235;SDS011;8734;59.272;17.780;2023-11-21T14:32:45;2.93;;;1.83;;
17235;SDS011;8734;59.272;17.780;2023-11-21T14:35:15;3.20;;;1.80;;
17235;SDS011;8734;59.272;17.780;2023-11-21T14:37:44;2.83;;;1.73;;
17235;SDS011;8734;59.272;17.780;2023-11-21T14:40:12;3.20;;;1.90;;
17235;SDS011;8734;59.272;17.780;2023-11-21T14:42:42;7.60;;;2.60;;
17235;SDS011;8734;59.272;17.780;2023-11-21T14:45:13;3.03;;;1.93;;
17235;SDS011;8734;59.272;17.780;2023-11-21T14:47:46;4.63;;;2.23;;
17235;SDS011;8734;59.272;17.780;2023-11-21T14:50:24;3.47;;;2.07;;
17235;SDS011;8734;59.272;17.780;2023-11-21T14:53:35;4.77;;;1.93;;
17235;SDS011;8734;59.272;17.780;2023-11-21T14:56:10;3.03;;;2.20;;
17235;SDS011;8734;59.272;17.780;2023-11-21T14:58:44;2.87;;;1.80;;